Startpagina
METAR-TAF:

METAR-TAF

Vliegvelden :

Talkeetna, Alaska, Verenigde Staten

breedte: 62-19-14N, lengte: 150-05-37W, hoogte: 109 m

Actueel weer

Dit bericht is 15 minuten geleden gemaakt, om 17:53 UTC
Wind 13 kt uit het noordnoordoosten met uitschieters tot 19 kt
Temperatuur -2°C
Vochtigheid 54%
Druk 1020 hPa
Zicht: 16.1 km
Geheel bewolkt op 11000 ft

METAR: PATK 161753Z 03013G19KT 10SM OVC110 M02/M10 A3013 RMK AO2 PRESFR SLP210 T10221100 11017 21022 58014

Tijdstip: 09:08 (18:08 UTC)

Verwachting

Dit bericht is 28 minuten geleden gemaakt, om 17:40 UTC
Verwachting geldig van 16 om 18 UTC tot 17 om 18 UTC
Wind 10 kt uit het noordnoordoosten
Zicht: 10 km
Weinig wolken op 5000 ft
Geheel bewolkt op 10000 ft
Van 16 om 2300 UTC
Wind 8 kt uit het noordnoordoosten
Zicht: 10 km
Verspreide wolken op 3500 ft
Geheel bewolkt op 6000 ft
buien in de omgeving

TAF: PATK 161740Z 1618/1718 02010KT P6SM FEW050 OVC100 FM162300 02008KT P6SM VCSH SCT035 OVC060

Waarnemingen en weersverwachtingen van meer dan 4000 vliegvelden (METAR en TAF).

De beschikbare stations zijn de gele en rode punten op de kaart.

Ga met uw muis naar het station om de naam te zien.

Klik dan om waarnemingen en weersverwachtingen te zien.

kaart wijzigen: klik op de groene knoppen met een zwart kruis om in te zoomen, op de groene knop met een streepje om uit te zoomen of op de groene pijlen voor aangrenzende kaarten.


METAR-TAF: